createdAt,value
2019-06-26T00:00:09.098Z,0.00
2019-06-26T00:01:09.016Z,0.00
2019-06-26T00:02:09.001Z,0.00
2019-06-26T00:03:09.007Z,0.00
2019-06-26T00:04:09.000Z,0.00
2019-06-26T00:05:09.174Z,0.00
2019-06-26T00:06:08.963Z,0.00
2019-06-26T00:07:08.980Z,0.00
2019-06-26T00:08:09.002Z,0.00
2019-06-26T00:09:08.931Z,0.00
2019-06-26T00:10:08.909Z,0.00
2019-06-26T00:11:08.911Z,0.00
2019-06-26T00:12:08.893Z,0.00
2019-06-26T00:13:08.879Z,0.00
2019-06-26T00:14:08.931Z,0.00
2019-06-26T00:15:08.877Z,0.00
2019-06-26T00:16:08.859Z,0.00
2019-06-26T00:17:08.827Z,0.00
2019-06-26T00:18:08.815Z,0.00
2019-06-26T00:19:08.806Z,0.00
2019-06-26T00:20:08.835Z,0.00
2019-06-26T00:21:08.793Z,0.00
2019-06-26T00:22:08.772Z,0.00
2019-06-26T00:23:08.778Z,0.00
2019-06-26T00:24:08.745Z,0.00
2019-06-26T00:25:08.772Z,0.00
2019-06-26T00:26:08.762Z,0.00
2019-06-26T00:27:08.736Z,0.00
2019-06-26T00:28:08.703Z,0.00
2019-06-26T00:29:08.723Z,0.00
2019-06-26T00:30:08.694Z,0.00
2019-06-26T00:31:08.706Z,0.00
2019-06-26T00:32:08.684Z,0.00
2019-06-26T00:33:08.664Z,0.00
2019-06-26T00:34:08.656Z,0.00
2019-06-26T00:35:08.639Z,0.00
2019-06-26T00:36:08.657Z,0.00
2019-06-26T00:37:08.640Z,0.00
2019-06-26T00:38:08.609Z,0.00
2019-06-26T00:39:08.601Z,0.00
2019-06-26T00:40:08.585Z,0.00
2019-06-26T00:41:08.567Z,0.00
2019-06-26T00:42:08.596Z,0.00
2019-06-26T00:43:08.564Z,0.00
2019-06-26T00:44:08.553Z,0.00
2019-06-26T00:45:08.558Z,0.00
2019-06-26T00:46:08.541Z,0.00
2019-06-26T00:47:08.511Z,0.00
2019-06-26T00:48:08.495Z,0.00
2019-06-26T00:49:08.547Z,0.00
2019-06-26T00:50:08.496Z,0.00
2019-06-26T00:51:08.469Z,0.00
2019-06-26T00:52:08.463Z,0.00
2019-06-26T00:53:08.451Z,0.00
2019-06-26T00:54:08.573Z,0.00
2019-06-26T00:55:08.630Z,0.00
2019-06-26T00:56:08.433Z,0.00
2019-06-26T00:57:08.411Z,0.00
2019-06-26T00:58:08.396Z,0.00
2019-06-26T00:59:08.412Z,0.00
2019-06-26T01:00:08.404Z,0.00
2019-06-26T01:01:08.555Z,0.00
2019-06-26T01:02:08.348Z,0.00
2019-06-26T01:03:08.402Z,0.00
2019-06-26T01:04:08.533Z,0.00
2019-06-26T01:05:08.345Z,0.00
2019-06-26T01:06:08.307Z,0.00
2019-06-26T01:07:08.294Z,0.00
2019-06-26T01:08:08.482Z,0.00
2019-06-26T01:09:08.274Z,0.00
2019-06-26T01:10:08.269Z,0.00
2019-06-26T01:11:08.279Z,0.00
2019-06-26T01:12:08.259Z,0.00
2019-06-26T01:13:08.296Z,0.00
2019-06-26T01:14:08.223Z,0.00
2019-06-26T01:15:08.242Z,0.00
2019-06-26T01:16:08.222Z,0.00
2019-06-26T01:17:08.196Z,0.00
2019-06-26T01:18:08.195Z,0.00
2019-06-26T01:19:08.187Z,0.00
2019-06-26T01:20:08.159Z,0.00
2019-06-26T01:21:08.175Z,0.00
2019-06-26T01:22:08.138Z,0.00
2019-06-26T01:23:08.147Z,0.00
2019-06-26T01:24:08.138Z,0.00
2019-06-26T01:25:08.108Z,0.00
2019-06-26T01:26:08.107Z,0.00
2019-06-26T01:27:08.096Z,0.00
2019-06-26T01:28:08.082Z,0.00
2019-06-26T01:29:08.084Z,0.00
2019-06-26T01:30:08.231Z,0.00
2019-06-26T01:31:08.039Z,0.00
2019-06-26T01:32:08.040Z,0.00
2019-06-26T01:33:08.015Z,0.00
2019-06-26T01:34:08.014Z,0.00
2019-06-26T01:35:08.006Z,0.00
2019-06-26T01:36:08.050Z,0.00
2019-06-26T01:37:07.988Z,0.00
2019-06-26T01:38:07.967Z,0.00
2019-06-26T01:39:07.952Z,0.00
2019-06-26T01:40:07.940Z,0.00
2019-06-26T01:41:07.930Z,0.00
2019-06-26T01:42:07.960Z,0.00
2019-06-26T01:43:07.943Z,0.00
2019-06-26T01:44:14.654Z,0.00
2019-06-26T01:45:08.882Z,0.00
2019-06-26T01:46:07.912Z,0.00
2019-06-26T01:47:07.890Z,0.00
2019-06-26T01:48:07.861Z,0.00
2019-06-26T01:49:07.870Z,0.00
2019-06-26T01:50:07.861Z,0.00
2019-06-26T01:51:07.842Z,0.00
2019-06-26T01:52:07.818Z,0.00
2019-06-26T01:53:07.802Z,0.00
2019-06-26T01:54:07.819Z,0.00
2019-06-26T01:55:07.800Z,0.00
2019-06-26T01:56:07.780Z,0.00
2019-06-26T01:57:07.784Z,0.00
2019-06-26T01:58:07.770Z,0.00
2019-06-26T01:59:07.738Z,0.00
2019-06-26T02:00:07.756Z,0.00
2019-06-26T02:01:07.751Z,0.00
2019-06-26T02:02:07.711Z,0.00
2019-06-26T02:03:07.691Z,0.00
2019-06-26T02:04:07.690Z,0.00
2019-06-26T02:05:07.694Z,0.00
2019-06-26T02:06:07.678Z,0.00
2019-06-26T02:07:07.748Z,0.00
2019-06-26T02:08:07.655Z,0.00
2019-06-26T02:09:07.674Z,0.00
2019-06-26T02:10:07.936Z,0.00
2019-06-26T02:11:07.645Z,0.00
2019-06-26T02:12:07.614Z,0.00
2019-06-26T02:13:07.605Z,0.00
2019-06-26T02:14:07.587Z,0.00
2019-06-26T02:15:07.575Z,0.00
2019-06-26T02:16:07.572Z,0.00
2019-06-26T02:17:07.560Z,0.00
2019-06-26T02:18:07.553Z,0.00
2019-06-26T02:19:07.531Z,0.00
2019-06-26T02:20:07.626Z,0.00
2019-06-26T02:21:07.546Z,0.00
2019-06-26T02:22:07.539Z,0.00
2019-06-26T02:23:07.473Z,0.00
2019-06-26T02:24:07.458Z,0.00
2019-06-26T02:25:07.474Z,0.00
2019-06-26T02:26:07.439Z,0.00
2019-06-26T02:27:07.565Z,0.00
2019-06-26T02:28:07.421Z,0.00
2019-06-26T02:29:07.409Z,0.00
2019-06-26T02:30:07.424Z,0.00
2019-06-26T02:31:07.407Z,0.00
2019-06-26T02:32:07.377Z,0.00
2019-06-26T02:33:07.384Z,0.00
2019-06-26T02:34:07.353Z,0.00
2019-06-26T02:35:09.752Z,0.00
2019-06-26T02:36:07.341Z,0.00
2019-06-26T02:37:07.353Z,4.00
2019-06-26T02:38:07.306Z,4.00
2019-06-26T02:39:07.492Z,4.00
2019-06-26T02:40:07.296Z,0.00
2019-06-26T02:41:07.277Z,0.00
2019-06-26T02:42:07.280Z,4.00
2019-06-26T02:43:07.516Z,4.00
2019-06-26T02:44:07.258Z,4.00
2019-06-26T02:45:07.315Z,4.00
2019-06-26T02:46:07.231Z,4.00
2019-06-26T02:47:19.850Z,4.00
2019-06-26T02:48:08.209Z,8.00
2019-06-26T02:49:07.190Z,8.00
2019-06-26T02:50:07.176Z,8.00
2019-06-26T02:51:07.195Z,8.00
2019-06-26T02:52:07.158Z,12.00
2019-06-26T02:53:07.158Z,12.00
2019-06-26T02:54:07.177Z,16.00
2019-06-26T02:55:07.126Z,16.00
2019-06-26T02:56:07.159Z,20.00
2019-06-26T02:57:07.096Z,16.00
2019-06-26T02:58:07.101Z,20.00
2019-06-26T02:59:07.113Z,24.00
2019-06-26T03:00:07.159Z,28.00
2019-06-26T03:01:07.090Z,28.00
2019-06-26T03:02:07.045Z,36.00
2019-06-26T03:03:07.027Z,40.00
2019-06-26T03:04:07.021Z,44.00
2019-06-26T03:05:07.025Z,48.00
2019-06-26T03:06:07.018Z,56.00
2019-06-26T03:07:07.016Z,56.00
2019-06-26T03:08:06.985Z,64.00
2019-06-26T03:09:06.964Z,76.00
2019-06-26T03:10:06.970Z,80.00
2019-06-26T03:11:06.977Z,88.00
2019-06-26T03:12:06.933Z,100.00
2019-06-26T03:13:06.936Z,104.00
2019-06-26T03:14:06.918Z,116.00
2019-06-26T03:15:09.380Z,128.00
2019-06-26T03:16:06.900Z,136.00
2019-06-26T03:17:06.924Z,148.00
2019-06-26T03:18:06.871Z,160.00
2019-06-26T03:19:06.864Z,172.00
2019-06-26T03:20:06.859Z,184.00
2019-06-26T03:21:06.870Z,200.00
2019-06-26T03:22:06.850Z,212.00
2019-06-26T03:23:06.827Z,228.00
2019-06-26T03:24:06.828Z,240.00
2019-06-26T03:25:06.812Z,256.00
2019-06-26T03:26:06.797Z,272.00
2019-06-26T03:27:09.007Z,292.00
2019-06-26T03:28:06.766Z,304.00
2019-06-26T03:29:06.761Z,324.00
2019-06-26T03:30:06.785Z,344.00
2019-06-26T03:31:06.751Z,368.00
2019-06-26T03:32:06.737Z,388.00
2019-06-26T03:33:06.707Z,408.00
2019-06-26T03:34:06.711Z,432.00
2019-06-26T03:35:06.722Z,456.00
2019-06-26T03:36:06.671Z,476.00
2019-06-26T03:37:06.677Z,504.00
2019-06-26T03:38:06.684Z,524.00
2019-06-26T03:39:06.632Z,548.00
2019-06-26T03:40:06.938Z,576.00
2019-06-26T03:41:06.625Z,604.00
2019-06-26T03:42:06.613Z,632.00
2019-06-26T03:43:06.608Z,664.00
2019-06-26T03:44:06.598Z,700.00
2019-06-26T03:45:06.580Z,736.00
2019-06-26T03:46:06.602Z,780.00
2019-06-26T03:47:06.556Z,820.00
2019-06-26T03:48:06.700Z,860.00
2019-06-26T03:49:06.532Z,904.00
2019-06-26T03:50:06.531Z,944.00
2019-06-26T03:51:06.545Z,984.00
2019-06-26T03:52:06.503Z,1028.00
2019-06-26T03:53:06.512Z,1068.00
2019-06-26T03:54:06.550Z,1108.00
2019-06-26T03:55:06.508Z,1156.00
2019-06-26T03:56:06.495Z,1204.00
2019-06-26T03:57:06.445Z,1252.00
2019-06-26T03:58:06.442Z,1296.00
2019-06-26T03:59:06.460Z,1348.00
2019-06-26T04:00:06.451Z,1400.00
2019-06-26T04:01:06.397Z,1456.00
2019-06-26T04:02:06.384Z,1508.00
2019-06-26T04:03:06.446Z,1564.00
2019-06-26T04:04:06.387Z,1620.00
2019-06-26T04:05:06.374Z,1676.00
2019-06-26T04:06:06.347Z,1736.00
2019-06-26T04:07:06.349Z,1792.00
2019-06-26T04:08:06.319Z,1856.00
2019-06-26T04:09:06.326Z,1920.00
2019-06-26T04:10:06.303Z,1988.00
2019-06-26T04:11:06.290Z,2068.00
2019-06-26T04:12:06.282Z,2136.00
2019-06-26T04:13:06.286Z,2196.00
2019-06-26T04:14:06.284Z,2324.00
2019-06-26T04:15:06.245Z,2452.00
2019-06-26T04:16:06.230Z,2416.00
2019-06-26T04:17:06.221Z,2452.00
2019-06-26T04:18:06.215Z,2528.00
2019-06-26T04:19:06.239Z,2608.00
2019-06-26T04:20:06.210Z,2696.00
2019-06-26T04:21:06.174Z,2776.00
2019-06-26T04:22:06.163Z,2852.00
2019-06-26T04:23:06.156Z,2936.00
2019-06-26T04:24:06.171Z,3024.00
2019-06-26T04:25:06.129Z,3104.00
2019-06-26T04:26:06.169Z,3176.00
2019-06-26T04:27:06.113Z,3244.00
2019-06-26T04:28:06.535Z,3316.00
2019-06-26T04:29:06.113Z,3400.00
2019-06-26T04:30:06.166Z,3496.00
2019-06-26T04:31:06.073Z,3588.00
2019-06-26T04:32:06.085Z,3688.00
2019-06-26T04:33:06.049Z,3788.00
2019-06-26T04:34:06.058Z,3892.00
2019-06-26T04:35:06.029Z,3972.00
2019-06-26T04:36:06.015Z,4092.00
2019-06-26T04:37:06.005Z,6720.00
2019-06-26T04:38:06.032Z,4684.00
2019-06-26T04:39:06.099Z,4396.00
2019-06-26T04:40:05.968Z,4496.00
2019-06-26T04:41:05.964Z,4608.00
2019-06-26T04:42:05.951Z,4740.00
2019-06-26T04:43:05.941Z,5084.00
2019-06-26T04:44:05.939Z,5144.00
2019-06-26T04:45:05.931Z,6872.00
2019-06-26T04:46:05.897Z,7840.00
2019-06-26T04:47:05.901Z,9856.00
2019-06-26T04:48:07.177Z,9872.00
2019-06-26T04:49:05.884Z,6912.00
2019-06-26T04:50:05.930Z,6488.00
2019-06-26T04:51:05.844Z,9148.00
2019-06-26T04:52:05.839Z,11776.00
2019-06-26T04:53:05.859Z,11908.00
2019-06-26T04:54:05.811Z,8760.00
2019-06-26T04:55:05.825Z,8624.00
2019-06-26T04:56:05.821Z,12608.00
2019-06-26T04:57:05.783Z,12340.00
2019-06-26T04:58:05.769Z,8940.00
2019-06-26T04:59:05.765Z,10220.00
2019-06-26T05:00:05.855Z,12032.00
2019-06-26T05:01:05.747Z,11744.00
2019-06-26T05:02:05.800Z,11312.00
2019-06-26T05:03:05.713Z,13536.00
2019-06-26T05:04:05.709Z,14112.00
2019-06-26T05:05:05.714Z,10732.00
2019-06-26T05:06:05.693Z,7648.00
2019-06-26T05:07:05.677Z,7328.00
2019-06-26T05:08:05.683Z,7328.00
2019-06-26T05:09:05.656Z,7392.00
2019-06-26T05:10:05.672Z,7448.00
2019-06-26T05:11:05.632Z,7488.00
2019-06-26T05:12:05.620Z,7552.00
2019-06-26T05:13:05.610Z,7620.00
2019-06-26T05:14:05.639Z,7660.00
2019-06-26T05:15:05.607Z,7716.00
2019-06-26T05:16:15.090Z,7820.00
2019-06-26T05:17:06.565Z,7900.00
2019-06-26T05:18:05.551Z,7976.00
2019-06-26T05:19:05.540Z,8088.00
2019-06-26T05:20:05.760Z,8168.00
2019-06-26T05:21:05.547Z,8260.00
2019-06-26T05:22:05.506Z,8376.00
2019-06-26T05:23:05.495Z,8428.00
2019-06-26T05:24:05.500Z,8500.00
2019-06-26T05:25:06.168Z,8580.00
2019-06-26T05:26:05.460Z,8700.00
2019-06-26T05:27:05.463Z,8784.00
2019-06-26T05:28:08.277Z,8864.00
2019-06-26T05:29:05.453Z,8960.00
2019-06-26T05:30:05.419Z,9128.00
2019-06-26T05:31:05.442Z,15680.00
2019-06-26T05:32:05.397Z,14552.00
2019-06-26T05:33:05.432Z,11288.00
2019-06-26T05:34:05.395Z,9496.00
2019-06-26T05:35:05.379Z,9520.00
2019-06-26T05:36:05.377Z,9608.00
2019-06-26T05:37:05.364Z,9700.00
2019-06-26T05:38:05.336Z,9800.00
2019-06-26T05:39:05.359Z,9872.00
2019-06-26T05:40:06.332Z,11968.00
2019-06-26T05:41:05.324Z,12460.00
2019-06-26T05:42:06.764Z,10220.00
2019-06-26T05:43:05.280Z,10304.00
2019-06-26T05:44:05.270Z,10420.00
2019-06-26T05:45:05.368Z,10512.00
2019-06-26T05:46:05.307Z,10652.00
2019-06-26T05:47:07.175Z,10684.00
2019-06-26T05:48:05.232Z,10756.00
2019-06-26T05:49:05.217Z,10928.00
2019-06-26T05:50:05.203Z,10988.00
2019-06-26T05:51:05.219Z,11028.00
2019-06-26T05:52:05.235Z,10984.00
2019-06-26T05:53:05.172Z,11040.00
2019-06-26T05:54:05.190Z,11224.00
2019-06-26T05:55:05.152Z,11316.00
2019-06-26T05:56:05.238Z,11372.00
2019-06-26T05:57:05.137Z,11416.00
2019-06-26T05:58:05.180Z,11428.00
2019-06-26T05:59:05.115Z,11500.00
2019-06-26T06:00:05.098Z,11652.00
2019-06-26T06:01:05.104Z,11724.00
2019-06-26T06:02:05.099Z,11840.00
2019-06-26T06:03:05.090Z,11856.00
2019-06-26T06:04:05.070Z,11944.00
2019-06-26T06:05:05.104Z,11976.00
2019-06-26T06:06:05.054Z,11984.00
2019-06-26T06:07:05.050Z,12104.00
2019-06-26T06:08:05.014Z,12172.00
2019-06-26T06:09:05.006Z,12132.00
2019-06-26T06:10:05.017Z,12260.00
2019-06-26T06:11:04.979Z,12352.00
2019-06-26T06:12:04.989Z,12516.00
2019-06-26T06:13:04.993Z,12524.00
2019-06-26T06:14:04.948Z,12580.00
2019-06-26T06:15:04.958Z,12572.00
2019-06-26T06:16:06.542Z,12588.00
2019-06-26T06:17:04.940Z,12688.00
2019-06-26T06:18:04.919Z,12724.00
2019-06-26T06:19:04.909Z,12780.00
2019-06-26T06:20:04.883Z,12908.00
2019-06-26T06:21:04.914Z,12976.00
2019-06-26T06:22:04.914Z,13084.00
2019-06-26T06:23:04.854Z,13180.00
2019-06-26T06:24:04.849Z,13300.00
2019-06-26T06:25:04.852Z,13384.00
2019-06-26T06:26:04.822Z,13500.00
2019-06-26T06:27:04.828Z,13524.00
2019-06-26T06:28:04.801Z,13616.00
2019-06-26T06:29:04.790Z,13756.00
2019-06-26T06:30:04.818Z,13748.00
2019-06-26T06:31:04.767Z,13812.00
2019-06-26T06:32:04.778Z,13936.00
2019-06-26T06:33:04.747Z,13948.00
2019-06-26T06:34:04.736Z,14108.00
2019-06-26T06:35:04.728Z,14072.00
2019-06-26T06:36:04.713Z,14096.00
2019-06-26T06:37:04.723Z,14192.00
2019-06-26T06:38:04.714Z,14372.00
2019-06-26T06:39:04.685Z,14320.00
2019-06-26T06:40:04.672Z,14288.00
2019-06-26T06:41:04.661Z,14280.00
2019-06-26T06:42:04.675Z,16416.00
2019-06-26T06:43:04.642Z,14824.00
2019-06-26T06:44:04.631Z,14660.00
2019-06-26T06:45:04.619Z,14664.00
2019-06-26T06:46:04.607Z,14644.00
2019-06-26T06:47:05.662Z,14700.00
2019-06-26T06:48:04.624Z,14756.00
2019-06-26T06:49:04.575Z,14908.00
2019-06-26T06:50:04.564Z,15108.00
2019-06-26T06:51:04.558Z,15308.00
2019-06-26T06:52:04.545Z,15392.00
2019-06-26T06:53:04.550Z,15316.00
2019-06-26T06:54:04.570Z,15388.00
2019-06-26T06:55:04.565Z,15404.00
2019-06-26T06:56:04.501Z,15592.00
2019-06-26T06:57:04.495Z,15568.00
2019-06-26T06:58:04.510Z,15612.00
2019-06-26T06:59:04.471Z,15888.00
2019-06-26T07:00:04.496Z,15976.00
2019-06-26T07:01:04.474Z,16036.00
2019-06-26T07:02:04.440Z,16276.00
2019-06-26T07:03:04.451Z,16168.00
2019-06-26T07:04:04.430Z,16600.00
2019-06-26T07:05:04.409Z,16440.00
2019-06-26T07:06:04.394Z,16832.00
2019-06-26T07:07:04.389Z,16492.00
2019-06-26T07:08:04.403Z,16832.00
2019-06-26T07:09:04.366Z,16612.00
2019-06-26T07:10:04.355Z,16832.00
2019-06-26T07:11:04.379Z,16896.00
2019-06-26T07:12:04.333Z,16928.00
2019-06-26T07:13:04.350Z,16960.00
2019-06-26T07:14:04.317Z,17216.00
2019-06-26T07:15:04.308Z,17280.00
2019-06-26T07:16:04.307Z,17376.00
2019-06-26T07:17:19.463Z,17344.00
2019-06-26T07:18:05.294Z,17440.00
2019-06-26T07:19:04.265Z,17376.00
2019-06-26T07:20:04.256Z,17632.00
2019-06-26T07:21:04.245Z,17536.00
2019-06-26T07:22:07.178Z,17504.00
2019-06-26T07:23:04.251Z,17536.00
2019-06-26T07:24:04.247Z,17824.00
2019-06-26T07:25:04.199Z,17760.00
2019-06-26T07:26:04.194Z,17888.00
2019-06-26T07:27:04.194Z,18048.00
2019-06-26T07:28:04.213Z,18208.00
2019-06-26T07:29:04.163Z,18400.00
2019-06-26T07:30:04.159Z,18592.00
2019-06-26T07:31:04.144Z,18688.00
2019-06-26T07:32:04.156Z,18880.00
2019-06-26T07:33:04.165Z,30368.00
2019-06-26T07:34:04.143Z,31776.00
2019-06-26T07:35:04.101Z,41024.00
2019-06-26T07:36:04.088Z,50912.00
2019-06-26T07:37:04.077Z,44896.00
2019-06-26T07:38:04.197Z,30912.00
2019-06-26T07:39:04.059Z,20480.00
2019-06-26T07:40:04.055Z,19424.00
2019-06-26T07:41:04.031Z,19616.00
2019-06-26T07:42:04.023Z,19520.00
2019-06-26T07:43:04.016Z,19296.00
2019-06-26T07:44:04.051Z,26144.00
2019-06-26T07:45:03.999Z,19328.00
2019-06-26T07:46:03.980Z,31872.00
2019-06-26T07:47:04.017Z,29152.00
2019-06-26T07:48:03.961Z,27168.00
2019-06-26T07:49:03.973Z,41248.00
2019-06-26T07:50:03.944Z,46080.00
2019-06-26T07:51:03.928Z,43072.00
2019-06-26T07:52:03.920Z,39264.00
2019-06-26T07:53:03.908Z,28800.00
2019-06-26T07:54:03.921Z,21504.00
2019-06-26T07:55:03.890Z,20992.00
2019-06-26T07:56:03.877Z,20768.00
2019-06-26T07:57:03.912Z,20736.00
2019-06-26T07:58:03.898Z,20736.00
2019-06-26T07:59:03.875Z,29920.00
2019-06-26T08:00:03.852Z,55648.00
2019-06-26T08:01:03.845Z,87968.00
2019-06-26T08:02:03.824Z,83040.00
2019-06-26T08:03:04.642Z,82560.00
2019-06-26T08:04:03.820Z,83168.00
2019-06-26T08:05:03.791Z,82624.00
2019-06-26T08:06:03.780Z,83584.00
2019-06-26T08:07:03.795Z,59424.00
2019-06-26T08:08:03.767Z,82336.00
2019-06-26T08:09:03.769Z,34528.00
2019-06-26T08:10:03.774Z,27904.00
2019-06-26T08:11:06.392Z,38176.00
2019-06-26T08:12:03.723Z,22592.00
2019-06-26T08:13:03.712Z,20576.00
2019-06-26T08:14:04.073Z,22816.00
2019-06-26T08:15:03.700Z,25728.00
2019-06-26T08:16:03.691Z,39072.00
2019-06-26T08:17:03.676Z,62496.00
2019-06-26T08:18:03.671Z,88160.00
2019-06-26T08:19:03.694Z,83328.00
2019-06-26T08:20:03.657Z,76032.00
2019-06-26T08:21:12.298Z,42048.00
2019-06-26T08:22:04.623Z,24288.00
2019-06-26T08:23:03.655Z,34240.00
2019-06-26T08:24:04.188Z,41728.00
2019-06-26T08:25:03.599Z,19264.00
2019-06-26T08:26:03.602Z,40832.00
2019-06-26T08:27:03.590Z,51520.00
2019-06-26T08:28:03.587Z,20864.00
2019-06-26T08:29:04.077Z,20416.00
2019-06-26T08:30:03.613Z,71744.00
2019-06-26T08:31:03.546Z,69056.00
2019-06-26T08:32:03.537Z,80320.00
2019-06-26T08:33:03.578Z,83712.00
2019-06-26T08:34:03.531Z,0.00
2019-06-26T08:35:04.322Z,83744.00
2019-06-26T08:36:03.508Z,83712.00
2019-06-26T08:37:03.522Z,87840.00
2019-06-26T08:38:10.986Z,85088.00
2019-06-26T08:39:04.473Z,88288.00
2019-06-26T08:40:03.517Z,92064.00
2019-06-26T08:41:03.483Z,91136.00
2019-06-26T08:42:03.475Z,88800.00
2019-06-26T08:43:03.459Z,87296.00
2019-06-26T08:44:03.451Z,88352.00
2019-06-26T08:45:03.505Z,90816.00
2019-06-26T08:46:03.419Z,92352.00
2019-06-26T08:47:03.403Z,92832.00
2019-06-26T08:48:17.367Z,85792.00
2019-06-26T08:49:04.405Z,85568.00
2019-06-26T08:50:03.454Z,87264.00
2019-06-26T08:51:03.383Z,89120.00
2019-06-26T08:52:03.357Z,88576.00
2019-06-26T08:53:03.352Z,89632.00
2019-06-26T08:54:04.857Z,91072.00
2019-06-26T08:55:03.359Z,89664.00
2019-06-26T08:56:03.359Z,85344.00
2019-06-26T08:57:03.329Z,86816.00
2019-06-26T08:58:03.323Z,89440.00
2019-06-26T08:59:03.309Z,88416.00
2019-06-26T09:00:03.389Z,86752.00
2019-06-26T09:01:03.316Z,88544.00
2019-06-26T09:02:03.286Z,87616.00
2019-06-26T09:03:03.274Z,85760.00
2019-06-26T09:04:03.279Z,83520.00
2019-06-26T09:05:03.322Z,83552.00
2019-06-26T09:06:03.263Z,86240.00
2019-06-26T09:07:03.245Z,87296.00
2019-06-26T09:08:03.306Z,82720.00
2019-06-26T09:09:03.228Z,79904.00
2019-06-26T09:10:03.374Z,82560.00
2019-06-26T09:11:03.209Z,82624.00
2019-06-26T09:12:03.226Z,80576.00
2019-06-26T09:13:03.196Z,78976.00
2019-06-26T09:14:03.193Z,84512.00
2019-06-26T09:15:03.559Z,86432.00
2019-06-26T09:16:03.747Z,78528.00
2019-06-26T09:17:03.180Z,69216.00
2019-06-26T09:18:03.174Z,72000.00
2019-06-26T09:19:03.153Z,79712.00
2019-06-26T09:20:03.158Z,87200.00
2019-06-26T09:21:03.155Z,89472.00
2019-06-26T09:22:03.135Z,87296.00
2019-06-26T09:23:03.114Z,83360.00
2019-06-26T09:24:03.121Z,80608.00
2019-06-26T09:25:19.812Z,79360.00
2019-06-26T09:26:04.133Z,83392.00
2019-06-26T09:27:03.098Z,84160.00
2019-06-26T09:28:03.095Z,81600.00
2019-06-26T09:29:03.075Z,81280.00
2019-06-26T09:30:03.126Z,81888.00
2019-06-26T09:31:03.107Z,85120.00
2019-06-26T09:32:03.055Z,84480.00
2019-06-26T09:33:03.048Z,84320.00
2019-06-26T09:34:03.050Z,85376.00
2019-06-26T09:35:03.030Z,85600.00
2019-06-26T09:36:06.729Z,83008.00
2019-06-26T09:37:03.022Z,80736.00
2019-06-26T09:38:03.013Z,82048.00
2019-06-26T09:39:03.056Z,83392.00
2019-06-26T09:40:03.088Z,83712.00
2019-06-26T09:41:03.031Z,82752.00
2019-06-26T09:42:03.026Z,81088.00
2019-06-26T09:43:02.979Z,82496.00
2019-06-26T09:44:03.057Z,82336.00
2019-06-26T09:45:02.966Z,78880.00
2019-06-26T09:46:03.210Z,74784.00
2019-06-26T09:47:02.950Z,72672.00
2019-06-26T09:48:02.959Z,73056.00
2019-06-26T09:49:02.949Z,76640.00
2019-06-26T09:50:03.049Z,77696.00
2019-06-26T09:51:03.024Z,72928.00
2019-06-26T09:52:02.928Z,70976.00
2019-06-26T09:53:05.301Z,70016.00
2019-06-26T09:54:02.937Z,70016.00
2019-06-26T09:55:02.893Z,71456.00
2019-06-26T09:56:04.131Z,76032.00
2019-06-26T09:57:02.890Z,77952.00
2019-06-26T09:58:02.876Z,76704.00
2019-06-26T09:59:02.866Z,73088.00
2019-06-26T10:00:02.869Z,68640.00
2019-06-26T10:01:04.149Z,69408.00
2019-06-26T10:02:02.860Z,73824.00
2019-06-26T10:03:02.851Z,76768.00
2019-06-26T10:04:02.899Z,75872.00
2019-06-26T10:05:02.978Z,71104.00
2019-06-26T10:06:03.410Z,69056.00
2019-06-26T10:07:02.794Z,69600.00
2019-06-26T10:08:02.788Z,70048.00
2019-06-26T10:09:02.797Z,70336.00
2019-06-26T10:10:02.832Z,72064.00
2019-06-26T10:11:03.313Z,71264.00
2019-06-26T10:12:02.769Z,67424.00
2019-06-26T10:13:02.757Z,62784.00
2019-06-26T10:14:02.750Z,60160.00
2019-06-26T10:15:02.758Z,61952.00
2019-06-26T10:16:02.730Z,60352.00
2019-06-26T10:17:03.322Z,62176.00
2019-06-26T10:18:02.722Z,67392.00
2019-06-26T10:19:09.973Z,69952.00
2019-06-26T10:20:03.849Z,72512.00
2019-06-26T10:21:02.725Z,74656.00
2019-06-26T10:22:02.718Z,70016.00
2019-06-26T10:23:02.682Z,68032.00
2019-06-26T10:24:02.684Z,66944.00
2019-06-26T10:25:02.669Z,68640.00
2019-06-26T10:26:02.649Z,71264.00
2019-06-26T10:27:03.320Z,66112.00
2019-06-26T10:28:02.635Z,64224.00
2019-06-26T10:29:02.626Z,66720.00
2019-06-26T10:30:02.685Z,59360.00
2019-06-26T10:31:02.618Z,35232.00
2019-06-26T10:32:03.298Z,16084.00
2019-06-26T10:33:02.645Z,14840.00
2019-06-26T10:34:02.598Z,14392.00
2019-06-26T10:35:02.585Z,14112.00
2019-06-26T10:36:02.578Z,13924.00
2019-06-26T10:37:03.299Z,13792.00
2019-06-26T10:38:02.583Z,13708.00
2019-06-26T10:39:02.568Z,13652.00
2019-06-26T10:40:02.561Z,13584.00
2019-06-26T10:41:02.541Z,13540.00
2019-06-26T10:42:02.528Z,13504.00
2019-06-26T10:43:03.161Z,13524.00
2019-06-26T10:44:02.509Z,13412.00
2019-06-26T10:45:02.518Z,13356.00
2019-06-26T10:46:02.491Z,13416.00
2019-06-26T10:47:02.485Z,13320.00
2019-06-26T10:48:03.135Z,13300.00
2019-06-26T10:49:02.468Z,13260.00
2019-06-26T10:50:02.472Z,13092.00
2019-06-26T10:51:02.469Z,13072.00
2019-06-26T10:52:02.457Z,13036.00
2019-06-26T10:53:04.259Z,12988.00
2019-06-26T10:54:02.415Z,12840.00
2019-06-26T10:55:02.406Z,12796.00
2019-06-26T10:56:02.399Z,12788.00
2019-06-26T10:57:02.402Z,12680.00
2019-06-26T10:58:03.054Z,12600.00
2019-06-26T10:59:02.362Z,12448.00
2019-06-26T11:00:02.361Z,12276.00
2019-06-26T11:01:02.369Z,12176.00
2019-06-26T11:02:02.475Z,12256.00
2019-06-26T11:03:03.433Z,12396.00
2019-06-26T11:04:02.372Z,12456.00
2019-06-26T11:05:02.306Z,12476.00
2019-06-26T11:06:02.320Z,12412.00
2019-06-26T11:07:02.309Z,12444.00
2019-06-26T11:08:02.322Z,12232.00
2019-06-26T11:09:02.417Z,12068.00
2019-06-26T11:10:02.266Z,11852.00
2019-06-26T11:11:02.247Z,11652.00
2019-06-26T11:12:02.292Z,11424.00
2019-06-26T11:13:03.010Z,11356.00
2019-06-26T11:14:02.237Z,11336.00
2019-06-26T11:15:02.224Z,11500.00
2019-06-26T11:16:02.211Z,11500.00
2019-06-26T11:17:02.190Z,11544.00
2019-06-26T11:18:03.395Z,11476.00
2019-06-26T11:19:02.162Z,11264.00
2019-06-26T11:20:02.160Z,11124.00
2019-06-26T11:21:02.189Z,11208.00
2019-06-26T11:22:02.142Z,11212.00
2019-06-26T11:23:02.165Z,11228.00
2019-06-26T11:24:02.115Z,11092.00
2019-06-26T11:25:02.138Z,11056.00
2019-06-26T11:26:02.102Z,11128.00
2019-06-26T11:27:02.092Z,11252.00
2019-06-26T11:28:04.195Z,11336.00
2019-06-26T11:29:02.127Z,11132.00
2019-06-26T11:30:02.075Z,10896.00
2019-06-26T11:31:02.046Z,10876.00
2019-06-26T11:32:02.029Z,10800.00
2019-06-26T11:33:03.342Z,10740.00
2019-06-26T11:34:02.014Z,10500.00
2019-06-26T11:35:02.033Z,10420.00
2019-06-26T11:36:02.008Z,10536.00
2019-06-26T11:37:04.093Z,10408.00
2019-06-26T11:38:03.207Z,10304.00
2019-06-26T11:39:02.032Z,10420.00
2019-06-26T11:40:02.115Z,10552.00
2019-06-26T11:41:02.151Z,10480.00
2019-06-26T11:42:01.933Z,10464.00
2019-06-26T11:43:03.127Z,10216.00
2019-06-26T11:44:01.909Z,10188.00
2019-06-26T11:45:01.922Z,10100.00
2019-06-26T11:46:01.917Z,10032.00
2019-06-26T11:47:01.889Z,10068.00
2019-06-26T11:48:03.078Z,10032.00
2019-06-26T11:49:01.877Z,9972.00
2019-06-26T11:50:01.850Z,9920.00
2019-06-26T11:51:01.871Z,9884.00
2019-06-26T11:52:01.892Z,9804.00
2019-06-26T11:53:01.821Z,9684.00
2019-06-26T11:54:04.064Z,9560.00
2019-06-26T11:55:03.634Z,9400.00
2019-06-26T11:56:01.792Z,9248.00
2019-06-26T11:57:01.783Z,9300.00
2019-06-26T11:58:01.770Z,9400.00
2019-06-26T11:59:04.413Z,9516.00
2019-06-26T12:00:02.086Z,9572.00
2019-06-26T12:01:01.895Z,9532.00
2019-06-26T12:02:01.729Z,9528.00
2019-06-26T12:03:01.740Z,9452.00
2019-06-26T12:04:04.246Z,9364.00
2019-06-26T12:05:01.794Z,9208.00
2019-06-26T12:06:15.200Z,9084.00
2019-06-26T12:07:02.799Z,8948.00
2019-06-26T12:08:01.682Z,8788.00
2019-06-26T12:09:03.161Z,8660.00
2019-06-26T12:10:01.787Z,8620.00
2019-06-26T12:11:01.640Z,8632.00
2019-06-26T12:12:01.628Z,8596.00